Nearby METAR Reports

 

KIMT - Iron Mountain, Michigan, USA
Distance from station: 0 29mi, 47km
Updated: Sun, 13-Oct-2019 5:08pm CDT
Mostly cloudy
Mostly cloudy
 Wind from WSW
Wind: WSW 18 mph , 30 km/h, Gust: 25 mph , 41 km/h
Temperature: 41°F , 5°C
Wind Chill: 32°F , 0°C
Dew Point: 28°F , -2°C
Humidity: 61%
Barometer: 29.66 inHg , 1004.4 hPa
Clouds: Mostly cloudy
Visibility: 10 miles , 16 km
Cloud details: Mostly cloudy 2800 ft
2019/10/13 22:08 KIMT 132208Z AUTO 25016G22KT 10SM BKN028 05/M02 A2966 RMK AO2 T00501017
KMNM - Menominee, Michigan, USA
Distance from station: SE 31mi, 51km
Updated: Sun, 13-Oct-2019 4:56pm CDT
Overcast
Overcast
 Wind from WSW
Wind: WSW 5 mph , 7 km/h
Temperature: 41°F , 5°C
Wind Chill: 38°F , 3°C
Dew Point: 34°F , 1°C
Humidity: 76%
Barometer: 29.72 inHg , 1006.4 hPa
Clouds: Overcast
Visibility: 10 miles , 16 km
Cloud details: Few Clouds 3000 ft
Overcast 10000 ft
2019/10/13 21:56 KMNM 132156Z AUTO 24004KT 10SM FEW030 OVC100 05/01 A2972 RMK AO2 SLP068 T00500011 $
 
KOCQ - Oconto, Wisconsin, USA
Distance from station: SSE 38mi, 61km
Updated: Sun, 13-Oct-2019 5:15pm CDT
Overcast
Overcast
 Wind from WSW
Wind: WSW 9 mph , 15 km/h, Gust: 18 mph , 30 km/h
Temperature: 43°F , 6°C
Wind Chill: 38°F , 3°C
Dew Point: 32°F , 0°C
Humidity: 66%
Barometer: 29.74 inHg , 1007.1 hPa
Clouds: Overcast
Visibility: 10 miles , 16 km
Cloud details: Partly cloudy 3500 ft
Overcast 11000 ft
2019/10/13 22:15 KOCQ 132215Z AUTO 25008G16KT 10SM SCT035 OVC110 06/00 A2974 RMK AO1 T00561002
KEZS - Shawano Muni, Wisconsin, USA
Distance from station: SSW 48mi, 77km
Updated: Sun, 13-Oct-2019 5:35pm CDT
Clear
Clear
 Wind from WSW
Wind: WSW 9 mph , 15 km/h
Temperature: 43°F , 6°C
Wind Chill: 38°F , 3°C
Dew Point: 32°F , 0°C
Humidity: 66%
Barometer: 29.75 inHg , 1007.5 hPa
Clouds: Clear
Visibility: 10 miles , 16 km
2019/10/13 22:35 KEZS 132235Z AUTO 24008KT 10SM CLR 06/00 A2975 RMK AO2 T00570003
 
KAIG - Antigo/Langlade, Wisconsin, USA
Distance from station: WSW 51mi, 82km
Updated: Sun, 13-Oct-2019 5:35pm CDT
Overcast
Overcast
 Wind from W
Wind: W 14 mph , 22 km/h, Gust: 18 mph , 30 km/h
Temperature: 37°F , 3°C
Wind Chill: 28°F , -2°C
Dew Point: 28°F , -2°C
Humidity: 70%
Barometer: 29.73 inHg , 1006.8 hPa
Clouds: Overcast
Visibility: 10 miles , 16 km
Cloud details: Overcast 4400 ft
2019/10/13 22:35 KAIG 132235Z AUTO 27012G16KT 10SM OVC044 03/M02 A2973 RMK AO2 T00331024
KSUE - Sturgeon Bay, Wisconsin, USA
Distance from station: SE 51mi, 82km
Updated: Sun, 13-Oct-2019 4:56pm CDT
Overcast
Overcast
 Wind from WSW
Wind: WSW 12 mph , 19 km/h
Temperature: 39°F , 4°C
Wind Chill: 32°F , 0°C
Dew Point: 34°F , 1°C
Humidity: 81%
Barometer: 29.74 inHg , 1007.1 hPa
Clouds: Overcast
Visibility: 10 miles , 16 km
Cloud details: Few Clouds 2100 ft
Mostly cloudy 4400 ft
Overcast 8500 ft
2019/10/13 21:56 KSUE 132156Z AUTO 24010KT 10SM FEW021 BKN044 OVC085 04/01 A2974 RMK AO2 RAE13 SLP074 P0001 T00440011
 
KESC - Escanaba, Michigan, USA
Distance from station: ENE 56mi, 90km
Updated: Sun, 13-Oct-2019 4:56pm CDT
Partly cloudy
Partly cloudy
 Wind from WSW
Wind: WSW 9 mph , 15 km/h
Temperature: 43°F , 6°C
Wind Chill: 38°F , 3°C
Dew Point: 34°F , 1°C
Humidity: 71%
Barometer: 29.68 inHg , 1005.1 hPa
Clouds: Partly cloudy
Visibility: 10 miles , 16 km
Cloud details: Few Clouds 3100 ft
Partly cloudy 12000 ft
2019/10/13 21:56 KESC 132156Z AUTO 24008KT 10SM FEW031 SCT120 06/01 A2968 RMK AO2 SLP058 T00560006
KCLI - Clintonville, Wisconsin, USA
Distance from station: SSW 62mi, 99km
Updated: Sun, 13-Oct-2019 5:15pm CDT
Partly cloudy
Partly cloudy
 Wind from WSW
Wind: WSW 13 mph , 20 km/h
Temperature: 41°F , 5°C
Wind Chill: 34°F , 1°C
Dew Point: 32°F , 0°C
Humidity: 70%
Barometer: 29.77 inHg , 1008.1 hPa
Clouds: Partly cloudy
Visibility: 10 miles , 16 km
Cloud details: Partly cloudy 7000 ft
Partly cloudy 10000 ft
2019/10/13 22:15 KCLI 132215Z AUTO 24011KT 10SM SCT070 SCT100 05/00 A2977 RMK AO2 T00461003
 
KGRB - Ashwaubenon, Wisconsin, USA
Distance from station: S 63mi, 102km
Updated: Sun, 13-Oct-2019 4:53pm CDT
Overcast
Overcast
 Wind from WSW
Wind: WSW 8 mph , 13 km/h
Temperature: 39°F , 4°C
Wind Chill: 33°F , 1°C
Dew Point: 34°F , 1°C
Humidity: 81%
Barometer: 29.76 inHg , 1007.8 hPa
Clouds: Overcast
Visibility: 10 miles , 16 km
Cloud details: Few Clouds 2300 ft
Overcast 9500 ft
2019/10/13 21:53 KGRB 132153Z 25007KT 10SM FEW023 OVC095 04/01 A2976 RMK AO2 PK WND 25027/2123 RAB22E42 SLP086 P0001 T00390011
KEGV - Eagle River, Wisconsin, USA
Distance from station: NW 66mi, 107km
Updated: Sun, 13-Oct-2019 5:15pm CDT
Light rain, Overcast
Light rain, Overcast
 Wind from W
Wind: W 9 mph , 15 km/h, Gust: 16 mph , 26 km/h
Temperature: 36°F , 2°C
Wind Chill: 29°F , -2°C
Dew Point: 32°F , 0°C
Humidity: 87%
Barometer: 29.68 inHg , 1005.1 hPa
Summary: Light rain
Clouds: Overcast
Visibility: 10 miles , 16 km
Cloud details: Partly cloudy 1400 ft
Mostly cloudy 2100 ft
Overcast 9000 ft
2019/10/13 22:15 KEGV 132215Z AUTO 26008G14KT 10SM -RA SCT014 BKN021 OVC090 02/00 A2968 RMK AO2 T00231004
 
KRHI - Rhinelander, Wisconsin, USA
Distance from station: WNW 68mi, 109km
Updated: Sun, 13-Oct-2019 5:08pm CDT
Mostly cloudy
Mostly cloudy
 Wind from W
Wind: W 10 mph , 17 km/h
Temperature: 37°F , 3°C
Wind Chill: 30°F , -1°C
Dew Point: 32°F , 0°C
Humidity: 81%
Barometer: 29.70 inHg , 1005.8 hPa
Clouds: Mostly cloudy
Visibility: 10 miles , 16 km
Cloud details: Few Clouds 1300 ft
Mostly cloudy 3800 ft
Mostly cloudy 10000 ft
2019/10/13 22:08 KRHI 132208Z AUTO 26009KT 10SM FEW013 BKN038 BKN100 03/00 A2970 RMK AO2 UPE2157RAB2157E2158 P0000 T00280000
KLNL - Land O Lakes, Wisconsin, USA
Distance from station: NW 74mi, 119km
Updated: Sun, 13-Oct-2019 5:35pm CDT
Overcast
Overcast
 Wind from W
Wind: W 6 mph , 9 km/h
Temperature: 36°F , 2°C
Wind Chill: 31°F , -1°C
Dew Point: 34°F , 1°C
Humidity: 93%
Barometer: 29.70 inHg , 1005.8 hPa
Clouds: Overcast
Visibility: 10 miles , 16 km
Cloud details: Mostly cloudy 1000 ft
Mostly cloudy 3700 ft
Overcast 9000 ft
2019/10/13 22:35 KLNL 132235Z AUTO 27005KT 10SM BKN010 BKN037 OVC090 02/01 A2970 RMK AO2 T00170008
 
KSAW - Gwinn/Sawyer, Michigan, USA
Distance from station: NNE 74mi, 120km
Updated: Sun, 13-Oct-2019 4:47pm CDT
Overcast
Overcast
 Wind from WSW
Wind: WSW 9 mph , 15 km/h
Temperature: 37°F , 3°C
Wind Chill: 30°F , -1°C
Dew Point: 36°F , 2°C
Humidity: 93%
Barometer: 29.63 inHg , 1003.4 hPa
Clouds: Overcast
Visibility: 10 miles , 16 km
Cloud details: Partly cloudy 1100 ft
Mostly cloudy 1400 ft
Overcast 6000 ft
2019/10/13 21:47 KSAW 132147Z 25008KT 10SM SCT011 BKN014 OVC060 03/02 A2963